createdAt,value
2019-01-23T00:00:23.373Z,19.10
2019-01-23T00:02:51.880Z,19.70
2019-01-23T00:05:20.362Z,19.20
2019-01-23T00:07:48.850Z,20.13
2019-01-23T00:10:17.298Z,23.73
2019-01-23T00:12:45.762Z,22.33
2019-01-23T00:15:14.905Z,22.13
2019-01-23T00:17:43.346Z,19.33
2019-01-23T00:20:12.432Z,18.57
2019-01-23T00:22:40.889Z,19.87
2019-01-23T00:25:10.102Z,18.57
2019-01-23T00:27:38.560Z,17.97
2019-01-23T00:30:15.450Z,18.77
2019-01-23T00:32:44.195Z,18.27
2019-01-23T00:35:13.001Z,17.03
2019-01-23T00:37:41.492Z,18.47
2019-01-23T00:40:15.112Z,18.30
2019-01-23T00:42:43.563Z,16.83
2019-01-23T00:45:14.382Z,17.97
2019-01-23T00:47:43.370Z,17.50
2019-01-23T00:50:14.043Z,17.43
2019-01-23T00:52:42.860Z,17.93
2019-01-23T00:55:16.899Z,16.83
2019-01-23T00:57:45.429Z,17.80
2019-01-23T01:00:22.212Z,17.93
2019-01-23T01:02:51.436Z,17.30
2019-01-23T01:05:20.431Z,17.63
2019-01-23T01:07:48.959Z,17.50
2019-01-23T01:10:19.970Z,17.47
2019-01-23T01:12:48.966Z,17.33
2019-01-23T01:15:17.897Z,18.47
2019-01-23T01:17:46.634Z,17.70
2019-01-23T01:20:16.358Z,17.17
2019-01-23T01:22:45.429Z,16.93
2019-01-23T01:25:18.871Z,17.93
2019-01-23T01:27:47.496Z,18.83
2019-01-23T01:30:18.292Z,17.53
2019-01-23T01:32:47.039Z,17.43
2019-01-23T01:35:15.526Z,18.97
2019-01-23T01:37:44.306Z,17.80
2019-01-23T01:40:15.891Z,18.23
2019-01-23T01:42:44.356Z,17.30
2019-01-23T01:45:14.772Z,18.20
2019-01-23T01:47:43.293Z,17.70
2019-01-23T01:50:15.193Z,16.43
2019-01-23T01:52:43.983Z,16.43
2019-01-23T01:55:12.871Z,16.80
2019-01-23T01:57:41.659Z,18.07
2019-01-23T02:00:13.246Z,17.33
2019-01-23T02:02:41.716Z,16.40
2019-01-23T02:05:10.589Z,17.87
2019-01-23T02:07:39.049Z,15.70
2019-01-23T02:10:10.938Z,18.43
2019-01-23T02:12:39.402Z,18.13
2019-01-23T02:15:10.719Z,17.93
2019-01-23T02:17:39.180Z,18.07
2019-01-23T02:20:10.751Z,17.57
2019-01-23T02:22:39.189Z,17.57
2019-01-23T02:25:07.933Z,17.17
2019-01-23T02:27:36.389Z,17.03
2019-01-23T02:30:10.494Z,16.97
2019-01-23T02:32:38.963Z,17.27
2019-01-23T02:35:09.059Z,16.57
2019-01-23T02:37:37.543Z,17.50
2019-01-23T02:40:09.108Z,18.53
2019-01-23T02:42:37.680Z,18.53
2019-01-23T02:45:07.518Z,18.37
2019-01-23T02:47:35.987Z,17.37
2019-01-23T02:50:08.022Z,16.77
2019-01-23T02:52:36.557Z,18.43
2019-01-23T02:55:07.982Z,17.77
2019-01-23T02:57:36.445Z,18.10
2019-01-23T03:00:08.430Z,17.87
2019-01-23T03:02:36.906Z,17.77
2019-01-23T03:05:09.012Z,16.93
2019-01-23T03:07:37.486Z,17.80
2019-01-23T03:10:09.661Z,18.30
2019-01-23T03:12:38.145Z,17.60
2019-01-23T03:15:10.012Z,18.83
2019-01-23T03:17:38.520Z,18.03
2019-01-23T03:20:12.332Z,18.07
2019-01-23T03:22:40.816Z,17.53
2019-01-23T03:25:11.223Z,18.63
2019-01-23T03:27:39.695Z,18.13
2019-01-23T03:30:11.238Z,17.87
2019-01-23T03:32:39.770Z,18.57
2019-01-23T03:35:09.727Z,17.17
2019-01-23T03:37:39.336Z,19.10
2019-01-23T03:40:13.326Z,17.77
2019-01-23T03:42:41.823Z,17.57
2019-01-23T03:45:12.176Z,17.63
2019-01-23T03:47:40.718Z,18.03
2019-01-23T03:50:14.375Z,19.10
2019-01-23T03:52:42.846Z,18.43
2019-01-23T03:55:13.088Z,17.07
2019-01-23T03:57:41.679Z,17.37
2019-01-23T04:00:16.318Z,18.10
2019-01-23T04:02:45.144Z,16.73
2019-01-23T04:05:14.142Z,18.20
2019-01-23T04:07:42.733Z,17.60
2019-01-23T04:10:13.662Z,17.30
2019-01-23T04:12:42.520Z,38.37
2019-01-23T04:15:13.613Z,51.53
2019-01-23T04:17:42.091Z,17.80
2019-01-23T04:20:13.645Z,17.43
2019-01-23T04:22:42.309Z,17.57
2019-01-23T04:25:11.716Z,17.17
2019-01-23T04:27:40.558Z,17.33
2019-01-23T04:30:12.690Z,18.60
2019-01-23T04:32:41.157Z,18.43
2019-01-23T04:35:09.619Z,16.50
2019-01-23T04:37:38.085Z,17.10
2019-01-23T04:40:09.891Z,18.20
2019-01-23T04:42:38.708Z,18.30
2019-01-23T04:45:10.236Z,17.27
2019-01-23T04:47:38.733Z,17.77
2019-01-23T04:50:10.202Z,17.90
2019-01-23T04:52:40.609Z,18.15
2019-01-23T04:55:09.295Z,18.30
2019-01-23T04:57:38.112Z,16.75
2019-01-23T05:00:10.850Z,17.23
2019-01-23T05:02:39.335Z,16.62
2019-01-23T05:05:09.061Z,17.73
2019-01-23T05:07:37.544Z,18.30
2019-01-23T05:10:07.259Z,17.62
2019-01-23T05:12:35.729Z,17.23
2019-01-23T05:15:06.814Z,16.73
2019-01-23T05:17:35.319Z,16.80
2019-01-23T05:20:06.975Z,17.47
2019-01-23T05:22:35.436Z,15.60
2019-01-23T05:25:05.268Z,17.07
2019-01-23T05:27:33.725Z,16.53
2019-01-23T05:30:02.207Z,17.23
2019-01-23T05:32:30.667Z,17.62
2019-01-23T05:34:59.158Z,16.73
2019-01-23T05:37:27.631Z,17.60
2019-01-23T05:39:56.106Z,18.32
2019-01-23T05:42:24.582Z,18.35
2019-01-23T05:44:53.079Z,17.17
2019-01-23T05:47:21.579Z,18.50
2019-01-23T05:49:50.044Z,18.75
2019-01-23T05:52:18.498Z,17.77
2019-01-23T05:54:47.055Z,17.30
2019-01-23T05:57:15.531Z,16.85
2019-01-23T05:59:44.023Z,17.62
2019-01-23T06:02:12.508Z,18.20
2019-01-23T06:04:41.086Z,18.37
2019-01-23T06:07:09.572Z,17.97
2019-01-23T06:09:38.067Z,20.43
2019-01-23T06:12:06.539Z,18.52
2019-01-23T06:14:35.016Z,18.35
2019-01-23T06:17:03.882Z,18.05
2019-01-23T06:19:32.375Z,19.17
2019-01-23T06:22:00.838Z,19.17
2019-01-23T06:24:29.623Z,19.70
2019-01-23T06:26:58.102Z,17.73
2019-01-23T06:29:26.660Z,19.65
2019-01-23T06:31:55.152Z,18.92
2019-01-23T06:34:23.634Z,18.32
2019-01-23T06:36:52.111Z,18.35
2019-01-23T06:39:20.608Z,20.55
2019-01-23T06:41:49.152Z,18.27
2019-01-23T06:44:17.702Z,17.52
2019-01-23T06:46:46.194Z,18.98
2019-01-23T06:49:14.658Z,19.25
2019-01-23T06:51:43.145Z,17.65
2019-01-23T06:54:11.602Z,19.70
2019-01-23T06:56:40.091Z,19.42
2019-01-23T06:59:08.584Z,20.40
2019-01-23T07:01:37.040Z,18.48
2019-01-23T07:04:05.516Z,20.15
2019-01-23T07:06:34.080Z,18.52
2019-01-23T07:09:03.107Z,19.27
2019-01-23T07:11:31.606Z,19.20
2019-01-23T07:14:00.095Z,18.48
2019-01-23T07:16:28.569Z,18.80
2019-01-23T07:18:58.523Z,17.82
2019-01-23T07:21:27.002Z,19.25
2019-01-23T07:23:55.471Z,18.32
2019-01-23T07:26:23.959Z,19.93
2019-01-23T07:28:52.483Z,18.10
2019-01-23T07:31:20.950Z,19.20
2019-01-23T07:33:49.415Z,18.87
2019-01-23T07:36:17.938Z,19.93
2019-01-23T07:38:46.390Z,19.23
2019-01-23T07:41:14.866Z,20.23
2019-01-23T07:43:43.342Z,19.87
2019-01-23T07:46:11.824Z,19.67
2019-01-23T07:48:40.313Z,23.00
2019-01-23T07:51:08.776Z,25.83
2019-01-23T07:53:37.258Z,21.57
2019-01-23T07:56:05.760Z,21.60
2019-01-23T07:58:34.206Z,22.57
2019-01-23T08:01:02.704Z,22.27
2019-01-23T08:03:32.847Z,21.83
2019-01-23T08:06:01.387Z,21.37
2019-01-23T08:08:29.881Z,21.37
2019-01-23T08:10:58.336Z,22.67
2019-01-23T08:13:27.123Z,22.80
2019-01-23T08:15:55.620Z,23.23
2019-01-23T08:18:24.091Z,21.40
2019-01-23T08:20:52.581Z,21.80
2019-01-23T08:23:21.074Z,21.13
2019-01-23T08:25:49.526Z,20.90
2019-01-23T08:28:18.020Z,20.60
2019-01-23T08:30:46.801Z,21.80
2019-01-23T08:33:15.281Z,21.33
2019-01-23T08:35:43.751Z,21.47
2019-01-23T08:38:12.482Z,19.97
2019-01-23T08:40:40.962Z,20.17
2019-01-23T08:43:09.424Z,19.33
2019-01-23T08:45:37.901Z,20.53
2019-01-23T08:48:06.370Z,20.00
2019-01-23T08:50:37.962Z,20.57
2019-01-23T08:53:06.909Z,20.90
2019-01-23T08:55:35.363Z,18.80
2019-01-23T08:58:05.250Z,18.70
2019-01-23T09:00:34.242Z,18.57
2019-01-23T09:03:02.927Z,19.33
2019-01-23T09:05:31.382Z,19.33
2019-01-23T09:07:59.886Z,18.00
2019-01-23T09:10:29.587Z,19.37
2019-01-23T09:12:58.067Z,19.07
2019-01-23T09:15:26.706Z,19.60
2019-01-23T09:17:55.253Z,18.47
2019-01-23T09:20:23.979Z,19.03
2019-01-23T09:22:52.842Z,19.50
2019-01-23T09:25:23.783Z,21.57
2019-01-23T09:27:52.403Z,18.87
2019-01-23T09:30:29.838Z,19.43
2019-01-23T09:33:22.222Z,20.37
2019-01-23T09:36:11.213Z,20.30
2019-01-23T09:39:00.390Z,20.20
2019-01-23T09:41:34.768Z,19.80
2019-01-23T09:44:28.929Z,18.27
2019-01-23T09:47:00.735Z,18.53
2019-01-23T09:49:47.190Z,19.53
2019-01-23T09:52:35.371Z,18.27
2019-01-23T09:55:06.188Z,19.53
2019-01-23T09:57:34.654Z,18.27
2019-01-23T10:00:05.221Z,19.67
2019-01-23T10:02:33.695Z,17.30
2019-01-23T10:05:02.192Z,17.40
2019-01-23T10:07:31.121Z,16.67
2019-01-23T10:09:59.598Z,18.17
2019-01-23T10:12:28.056Z,17.63
2019-01-23T10:14:56.552Z,18.53
2019-01-23T10:17:25.011Z,17.20
2019-01-23T10:19:53.521Z,17.63
2019-01-23T10:22:21.958Z,17.40
2019-01-23T10:24:51.416Z,16.53
2019-01-23T10:27:19.925Z,16.97
2019-01-23T10:29:48.407Z,18.07
2019-01-23T10:32:16.902Z,17.07
2019-01-23T10:34:45.395Z,16.93
2019-01-23T10:37:19.509Z,17.93
2019-01-23T10:39:44.068Z,18.03
2019-01-23T10:42:12.887Z,17.77
2019-01-23T10:44:41.356Z,17.50
2019-01-23T10:47:09.812Z,16.27
2019-01-23T10:49:38.257Z,17.63
2019-01-23T10:52:07.026Z,16.00
2019-01-23T10:54:35.534Z,17.03
2019-01-23T10:57:04.612Z,16.97
2019-01-23T10:59:33.078Z,18.67
2019-01-23T11:02:01.547Z,17.70
2019-01-23T11:04:30.146Z,16.50
2019-01-23T11:06:58.767Z,17.77
2019-01-23T11:09:27.370Z,17.83
2019-01-23T11:11:56.263Z,17.00
2019-01-23T11:14:24.922Z,15.10
2019-01-23T11:16:53.389Z,16.73
2019-01-23T11:19:21.859Z,16.43
2019-01-23T11:21:50.371Z,16.50
2019-01-23T11:24:18.835Z,17.73
2019-01-23T11:26:47.308Z,16.17
2019-01-23T11:29:15.943Z,16.47
2019-01-23T11:31:44.388Z,15.90
2019-01-23T11:34:12.858Z,16.00
2019-01-23T11:36:41.311Z,15.10
2019-01-23T11:39:10.130Z,16.50
2019-01-23T11:41:38.569Z,15.33
2019-01-23T11:44:07.065Z,15.10
2019-01-23T11:46:35.511Z,15.43
2019-01-23T11:49:04.133Z,15.83
2019-01-23T11:51:32.615Z,16.80
2019-01-23T11:54:01.092Z,16.50
2019-01-23T11:56:29.553Z,16.63
2019-01-23T11:58:58.053Z,18.07
2019-01-23T12:01:27.715Z,17.90
2019-01-23T12:03:56.699Z,18.67
2019-01-23T12:06:25.158Z,18.90
2019-01-23T12:08:53.698Z,17.90
2019-01-23T12:11:22.136Z,18.00
2019-01-23T12:13:50.602Z,19.23
2019-01-23T12:16:19.621Z,19.17
2019-01-23T12:18:48.087Z,19.40
2019-01-23T12:21:17.473Z,17.37
2019-01-23T12:23:45.930Z,19.33
2019-01-23T12:26:14.437Z,19.97
2019-01-23T12:28:44.530Z,18.87
2019-01-23T12:31:12.995Z,19.43
2019-01-23T12:33:41.500Z,19.03
2019-01-23T12:36:10.061Z,20.00
2019-01-23T12:38:38.527Z,19.73
2019-01-23T12:41:09.987Z,20.37
2019-01-23T12:43:39.495Z,20.07
2019-01-23T12:46:08.083Z,19.80
2019-01-23T12:48:37.139Z,18.70
2019-01-23T12:51:05.608Z,19.93
2019-01-23T12:53:34.053Z,19.67
2019-01-23T12:56:02.514Z,18.40
2019-01-23T12:58:30.966Z,19.80
2019-01-23T13:00:59.443Z,20.00
2019-01-23T13:03:27.903Z,20.40
2019-01-23T13:05:56.388Z,20.23
2019-01-23T13:08:27.813Z,17.43
2019-01-23T13:10:56.327Z,20.20
2019-01-23T13:13:24.861Z,19.70
2019-01-23T13:15:53.387Z,19.43
2019-01-23T13:18:22.167Z,18.13
2019-01-23T13:20:50.963Z,18.53
2019-01-23T13:23:19.758Z,18.87
2019-01-23T13:25:48.697Z,20.33
2019-01-23T13:28:17.186Z,19.37
2019-01-23T13:30:45.629Z,19.87
2019-01-23T13:33:14.368Z,20.27
2019-01-23T13:35:43.156Z,20.60
2019-01-23T13:38:13.381Z,19.73
2019-01-23T13:40:42.776Z,19.13
2019-01-23T13:43:11.275Z,19.03
2019-01-23T13:45:39.810Z,18.57
2019-01-23T13:48:08.819Z,18.93
2019-01-23T13:50:37.455Z,19.60
2019-01-23T13:53:08.104Z,18.97
2019-01-23T13:55:36.289Z,19.90
2019-01-23T13:58:05.087Z,20.77
2019-01-23T14:00:40.185Z,20.47
2019-01-23T14:03:09.214Z,19.03
2019-01-23T14:05:37.669Z,19.67
2019-01-23T14:08:07.699Z,18.60
2019-01-23T14:10:36.150Z,19.40
2019-01-23T14:13:05.158Z,19.40
2019-01-23T14:15:35.846Z,19.90
2019-01-23T14:18:05.458Z,19.87
2019-01-23T14:20:34.001Z,18.77
2019-01-23T14:23:03.315Z,18.93
2019-01-23T14:25:31.846Z,18.13
2019-01-23T14:28:00.314Z,18.93
2019-01-23T14:30:37.819Z,21.13
2019-01-23T14:33:06.386Z,20.40
2019-01-23T14:35:36.724Z,19.70
2019-01-23T14:38:06.021Z,19.40
2019-01-23T14:40:34.816Z,19.53
2019-01-23T14:43:03.734Z,18.30
2019-01-23T14:45:32.192Z,17.43
2019-01-23T14:48:00.681Z,19.23
2019-01-23T14:50:29.134Z,20.10
2019-01-23T14:52:57.867Z,19.03
2019-01-23T14:55:26.332Z,19.13
2019-01-23T14:57:54.791Z,19.13
2019-01-23T15:00:26.058Z,18.67
2019-01-23T15:02:56.324Z,18.37
2019-01-23T15:05:25.198Z,18.33
2019-01-23T15:07:53.819Z,18.93
2019-01-23T15:10:25.122Z,18.90
2019-01-23T15:12:54.041Z,17.07
2019-01-23T15:15:24.427Z,18.73
2019-01-23T15:17:53.634Z,18.17
2019-01-23T15:20:33.667Z,19.23
2019-01-23T15:23:02.678Z,17.43
2019-01-23T15:25:31.409Z,17.83
2019-01-23T15:28:00.376Z,18.33
2019-01-23T15:30:28.845Z,18.00
2019-01-23T15:32:57.403Z,19.27
2019-01-23T15:35:25.835Z,18.10
2019-01-23T15:38:08.772Z,17.40
2019-01-23T15:40:38.336Z,18.43
2019-01-23T15:43:06.882Z,18.40
2019-01-23T15:45:35.432Z,18.87
2019-01-23T15:48:04.202Z,18.77
2019-01-23T15:50:32.713Z,18.90
2019-01-23T15:53:01.166Z,20.10
2019-01-23T15:55:29.684Z,21.30
2019-01-23T15:57:58.208Z,20.37
2019-01-23T16:00:29.494Z,19.83
2019-01-23T16:02:58.515Z,20.50
2019-01-23T16:05:27.460Z,21.53
2019-01-23T16:07:55.929Z,20.77
2019-01-23T16:10:26.819Z,19.10
2019-01-23T16:12:55.358Z,20.97
2019-01-23T16:15:25.974Z,21.33
2019-01-23T16:17:54.504Z,20.57
2019-01-23T16:20:23.842Z,19.43
2019-01-23T16:22:52.834Z,20.43
2019-01-23T16:25:21.870Z,21.13
2019-01-23T16:27:50.391Z,19.83
2019-01-23T16:30:25.143Z,21.00
2019-01-23T16:32:53.705Z,21.73
2019-01-23T16:35:22.588Z,21.20
2019-01-23T16:37:51.896Z,20.10
2019-01-23T16:40:20.454Z,22.23
2019-01-23T16:42:48.987Z,22.10
2019-01-23T16:45:19.501Z,20.47
2019-01-23T16:47:50.732Z,22.87
2019-01-23T16:50:24.736Z,21.80
2019-01-23T16:52:54.069Z,20.57
2019-01-23T16:55:23.659Z,21.17
2019-01-23T16:57:52.811Z,21.20
2019-01-23T17:00:23.618Z,19.10
2019-01-23T17:02:53.800Z,21.20
2019-01-23T17:05:25.130Z,20.97
2019-01-23T17:07:54.544Z,20.40
2019-01-23T17:10:25.454Z,18.70
2019-01-23T17:12:53.908Z,21.90
2019-01-23T17:15:22.794Z,22.80
2019-01-23T17:17:51.418Z,22.03
2019-01-23T17:20:26.012Z,22.60
2019-01-23T17:22:54.553Z,19.87
2019-01-23T17:25:23.048Z,19.53
2019-01-23T17:27:51.501Z,19.83
2019-01-23T17:30:21.628Z,19.37
2019-01-23T17:32:50.079Z,19.37
2019-01-23T17:35:20.563Z,19.83
2019-01-23T17:37:49.419Z,20.03
2019-01-23T17:40:23.874Z,20.60
2019-01-23T17:42:52.415Z,23.10
2019-01-23T17:45:23.340Z,21.13
2019-01-23T17:47:51.825Z,21.20
2019-01-23T17:50:23.175Z,21.20
2019-01-23T17:52:52.356Z,21.33
2019-01-23T17:55:29.440Z,20.33
2019-01-23T17:57:58.397Z,21.13
2019-01-23T18:00:30.432Z,21.93
2019-01-23T18:02:58.889Z,21.27
2019-01-23T18:05:27.465Z,21.13
2019-01-23T18:07:56.041Z,20.67
2019-01-23T18:10:24.490Z,22.40
2019-01-23T18:12:52.974Z,22.03
2019-01-23T18:15:24.559Z,22.07
2019-01-23T18:17:53.040Z,21.93
2019-01-23T18:20:24.497Z,23.57
2019-01-23T18:22:53.387Z,22.10
2019-01-23T18:25:22.602Z,22.30
2019-01-23T18:27:51.999Z,22.30
2019-01-23T18:30:29.394Z,23.23
2019-01-23T18:33:00.187Z,20.30
2019-01-23T18:35:37.106Z,22.63
2019-01-23T18:38:17.376Z,37.73
2019-01-23T18:41:05.847Z,26.47
2019-01-23T18:43:46.835Z,21.60
2019-01-23T18:46:33.456Z,21.67
2019-01-23T18:49:11.053Z,24.33
2019-01-23T18:51:40.149Z,23.27
2019-01-23T18:54:08.859Z,22.37
2019-01-23T18:56:37.407Z,21.93
2019-01-23T18:59:06.069Z,23.23
2019-01-23T19:01:34.618Z,22.07
2019-01-23T19:04:03.228Z,23.13
2019-01-23T19:06:31.691Z,22.97
2019-01-23T19:09:00.231Z,22.23
2019-01-23T19:11:28.722Z,25.67
2019-01-23T19:13:57.584Z,24.77
2019-01-23T19:16:26.068Z,21.80
2019-01-23T19:18:54.798Z,24.23
2019-01-23T19:21:23.270Z,22.47
2019-01-23T19:23:51.722Z,21.90
2019-01-23T19:26:20.579Z,29.93
2019-01-23T19:28:49.075Z,40.27
2019-01-23T19:31:17.544Z,28.23
2019-01-23T19:33:46.956Z,21.77
2019-01-23T19:36:15.438Z,20.90
2019-01-23T19:39:35.466Z,20.00
2019-01-23T19:42:08.910Z,23.30
2019-01-23T19:44:39.713Z,21.73
2019-01-23T19:47:10.153Z,21.93
2019-01-23T19:49:40.726Z,20.57
2019-01-23T19:52:11.569Z,21.50
2019-01-23T19:54:42.800Z,21.17
2019-01-23T19:57:13.504Z,22.93
2019-01-23T19:59:43.986Z,22.07
2019-01-23T20:02:15.046Z,22.63
2019-01-23T20:04:45.834Z,24.40
2019-01-23T20:07:16.729Z,24.37
2019-01-23T20:09:47.408Z,23.40
2019-01-23T20:12:18.290Z,23.57
2019-01-23T20:14:49.169Z,23.97
2019-01-23T20:17:20.625Z,23.80
2019-01-23T20:19:51.584Z,21.40
2019-01-23T20:22:22.196Z,24.33
2019-01-23T20:24:52.665Z,23.17
2019-01-23T20:27:23.039Z,22.30
2019-01-23T20:29:54.101Z,21.73
2019-01-23T20:32:24.945Z,21.80
2019-01-23T20:34:55.524Z,21.40
2019-01-23T20:37:26.729Z,21.23
2019-01-23T20:39:58.413Z,23.27
2019-01-23T20:42:29.770Z,22.13
2019-01-23T20:44:59.658Z,22.33
2019-01-23T20:47:38.510Z,21.93
2019-01-23T20:50:16.810Z,23.03
2019-01-23T20:52:47.437Z,21.57
2019-01-23T20:55:17.322Z,20.97
2019-01-23T20:57:47.669Z,21.27
2019-01-23T21:00:28.794Z,20.87
2019-01-23T21:02:59.409Z,20.73
2019-01-23T21:05:30.273Z,21.77
2019-01-23T21:08:00.313Z,22.17
2019-01-23T21:10:31.283Z,21.63
2019-01-23T21:13:01.514Z,22.23
2019-01-23T21:15:32.057Z,22.37
2019-01-23T21:18:02.094Z,22.40
2019-01-23T21:20:32.224Z,21.53
2019-01-23T21:23:02.575Z,20.57
2019-01-23T21:25:32.670Z,19.67
2019-01-23T21:28:02.751Z,20.80
2019-01-23T21:30:32.419Z,22.30
2019-01-23T21:33:02.473Z,21.17
2019-01-23T21:35:32.485Z,20.80
2019-01-23T21:38:01.970Z,22.33
2019-01-23T21:40:32.061Z,23.20
2019-01-23T21:43:02.796Z,20.27
2019-01-23T21:45:32.544Z,20.20
2019-01-23T21:48:08.025Z,20.70
2019-01-23T21:50:37.201Z,21.97
2019-01-23T21:53:06.942Z,20.53
2019-01-23T21:55:36.514Z,20.57
2019-01-23T21:58:06.021Z,22.53
2019-01-23T22:00:37.742Z,21.53
2019-01-23T22:03:08.745Z,21.23
2019-01-23T22:05:38.041Z,21.90
2019-01-23T22:08:07.941Z,22.93
2019-01-23T22:10:36.605Z,21.17
2019-01-23T22:13:05.606Z,21.20
2019-01-23T22:15:34.904Z,21.47
2019-01-23T22:18:04.806Z,21.37
2019-01-23T22:20:35.056Z,21.87
2019-01-23T22:23:04.812Z,19.97
2019-01-23T22:25:34.003Z,20.97
2019-01-23T22:28:02.524Z,21.23
2019-01-23T22:30:33.459Z,21.27
2019-01-23T22:33:04.283Z,21.20
2019-01-23T22:35:32.770Z,21.07
2019-01-23T22:38:01.367Z,23.50
2019-01-23T22:40:30.162Z,22.70
2019-01-23T22:42:58.644Z,21.07
2019-01-23T22:45:27.085Z,20.57
2019-01-23T22:47:55.543Z,22.17
2019-01-23T22:50:26.362Z,22.43
2019-01-23T22:52:55.669Z,21.00
2019-01-23T22:55:24.123Z,21.90
2019-01-23T22:57:52.685Z,21.93
2019-01-23T23:00:39.544Z,21.33
2019-01-23T23:03:10.679Z,21.70
2019-01-23T23:05:39.468Z,21.70
2019-01-23T23:08:08.666Z,21.23
2019-01-23T23:10:37.392Z,21.30
2019-01-23T23:13:06.026Z,20.07
2019-01-23T23:15:34.519Z,22.37
2019-01-23T23:18:02.973Z,21.27
2019-01-23T23:20:31.761Z,21.67
2019-01-23T23:23:00.252Z,22.43
2019-01-23T23:25:28.701Z,21.03
2019-01-23T23:27:57.148Z,21.67
2019-01-23T23:30:27.153Z,21.33
2019-01-23T23:32:55.605Z,20.97
2019-01-23T23:35:24.259Z,21.47
2019-01-23T23:37:52.701Z,22.50
2019-01-23T23:40:21.184Z,22.63
2019-01-23T23:42:49.629Z,21.40
2019-01-23T23:45:19.526Z,22.80
2019-01-23T23:47:48.509Z,22.13
2019-01-23T23:50:17.814Z,21.83
2019-01-23T23:52:46.541Z,23.13
2019-01-23T23:55:16.338Z,21.60
2019-01-23T23:57:45.279Z,22.27
